createdAt,value
2019-01-27T00:01:26.818Z,4.75
2019-01-27T00:03:54.206Z,4.74
2019-01-27T00:06:21.866Z,4.71
2019-01-27T00:08:50.088Z,4.73
2019-01-27T00:11:17.594Z,4.69
2019-01-27T00:13:45.165Z,4.74
2019-01-27T00:16:12.628Z,4.78
2019-01-27T00:18:39.965Z,4.75
2019-01-27T00:21:07.467Z,4.74
2019-01-27T00:23:34.866Z,4.73
2019-01-27T00:26:02.198Z,4.80
2019-01-27T00:28:30.169Z,4.81
2019-01-27T00:30:57.883Z,4.83
2019-01-27T00:33:25.324Z,4.80
2019-01-27T00:35:52.831Z,4.85
2019-01-27T00:38:20.359Z,4.85
2019-01-27T00:40:48.744Z,4.91
2019-01-27T00:43:16.846Z,4.90
2019-01-27T00:45:44.587Z,4.92
2019-01-27T00:48:12.288Z,4.93
2019-01-27T00:50:39.662Z,4.90
2019-01-27T00:53:07.171Z,4.91
2019-01-27T00:55:34.950Z,4.94
2019-01-27T00:58:03.374Z,4.98
2019-01-27T01:00:30.871Z,4.96
2019-01-27T01:02:58.224Z,5.02
2019-01-27T01:05:25.718Z,5.04
2019-01-27T01:07:53.570Z,4.99
2019-01-27T01:10:22.079Z,5.04
2019-01-27T01:12:49.850Z,5.04
2019-01-27T01:15:18.242Z,5.00
2019-01-27T01:17:46.422Z,5.06
2019-01-27T01:20:17.146Z,5.05
2019-01-27T01:22:45.198Z,5.04
2019-01-27T01:25:16.614Z,5.04
2019-01-27T01:27:44.877Z,5.05
2019-01-27T01:30:15.579Z,5.07
2019-01-27T01:32:43.051Z,5.11
2019-01-27T01:35:11.837Z,5.12
2019-01-27T01:37:39.462Z,5.15
2019-01-27T01:40:11.318Z,5.13
2019-01-27T01:42:38.974Z,5.25
2019-01-27T01:45:16.357Z,5.25
2019-01-27T01:47:43.871Z,5.16
2019-01-27T01:50:12.006Z,5.14
2019-01-27T01:52:39.226Z,5.29
2019-01-27T01:55:07.755Z,5.23
2019-01-27T01:57:35.355Z,5.26
2019-01-27T02:00:04.767Z,5.23
2019-01-27T02:02:32.227Z,5.27
2019-01-27T02:05:00.514Z,5.25
2019-01-27T02:07:28.176Z,5.27
2019-01-27T02:09:55.627Z,5.33
2019-01-27T02:12:23.764Z,5.31
2019-01-27T02:14:51.041Z,5.36
2019-01-27T02:17:18.494Z,5.32
2019-01-27T02:19:45.949Z,5.30
2019-01-27T02:22:13.607Z,5.37
2019-01-27T02:24:41.495Z,5.27
2019-01-27T02:27:09.380Z,5.26
2019-01-27T02:29:36.930Z,5.37
2019-01-27T02:32:04.425Z,5.37
2019-01-27T02:34:31.675Z,5.38
2019-01-27T02:36:59.275Z,5.38
2019-01-27T02:39:26.992Z,5.38
2019-01-27T02:41:54.253Z,5.34
2019-01-27T02:44:22.363Z,5.38
2019-01-27T02:46:49.675Z,5.40
2019-01-27T02:49:17.406Z,5.38
2019-01-27T02:51:45.222Z,5.41
2019-01-27T02:54:13.249Z,5.37
2019-01-27T02:56:40.543Z,5.35
2019-01-27T02:59:08.148Z,5.35
2019-01-27T03:01:35.925Z,5.41
2019-01-27T03:04:05.565Z,5.42
2019-01-27T03:07:04.467Z,5.40
2019-01-27T03:09:35.746Z,5.35
2019-01-27T03:12:04.401Z,5.38
2019-01-27T03:14:32.442Z,5.38
2019-01-27T03:17:00.101Z,5.38
2019-01-27T03:19:28.412Z,5.33
2019-01-27T03:21:56.498Z,5.33
2019-01-27T03:24:23.834Z,5.30
2019-01-27T03:26:51.083Z,5.29
2019-01-27T03:29:19.519Z,5.29
2019-01-27T03:31:47.587Z,5.31
2019-01-27T03:34:15.070Z,5.30
2019-01-27T03:36:42.160Z,5.28
2019-01-27T03:39:11.607Z,5.32
2019-01-27T03:41:39.066Z,5.26
2019-01-27T03:44:07.298Z,5.30
2019-01-27T03:46:35.344Z,5.30
2019-01-27T03:49:04.137Z,5.24
2019-01-27T03:51:31.367Z,5.32
2019-01-27T03:53:59.854Z,5.33
2019-01-27T03:56:27.289Z,5.29
2019-01-27T03:58:55.446Z,5.26
2019-01-27T04:01:22.975Z,5.20
2019-01-27T04:03:50.465Z,5.20
2019-01-27T04:06:17.725Z,5.22
2019-01-27T04:08:45.656Z,5.22
2019-01-27T04:11:13.784Z,5.25
2019-01-27T04:13:41.538Z,5.26
2019-01-27T04:16:09.221Z,5.20
2019-01-27T04:18:36.839Z,5.14
2019-01-27T04:21:04.679Z,5.24
2019-01-27T04:23:32.211Z,5.17
2019-01-27T04:26:00.116Z,5.22
2019-01-27T04:28:27.791Z,5.23
2019-01-27T04:30:55.290Z,5.23
2019-01-27T04:33:22.801Z,5.14
2019-01-27T04:35:50.306Z,5.14
2019-01-27T04:38:17.866Z,5.13
2019-01-27T04:40:45.488Z,5.16
2019-01-27T04:43:13.021Z,5.20
2019-01-27T04:45:40.877Z,5.08
2019-01-27T04:48:08.397Z,5.16
2019-01-27T04:50:35.911Z,5.14
2019-01-27T04:53:04.377Z,5.12
2019-01-27T04:55:32.147Z,5.12
2019-01-27T04:57:59.559Z,5.11
2019-01-27T05:00:27.189Z,5.11
2019-01-27T05:03:03.590Z,5.11
2019-01-27T05:05:31.294Z,5.11
2019-01-27T05:07:58.510Z,5.10
2019-01-27T05:10:25.741Z,5.10
2019-01-27T05:12:53.082Z,5.14
2019-01-27T05:15:22.970Z,5.13
2019-01-27T05:17:50.425Z,5.09
2019-01-27T05:20:17.821Z,5.04
2019-01-27T05:22:45.202Z,5.11
2019-01-27T05:25:13.033Z,5.08
2019-01-27T05:27:40.933Z,5.10
2019-01-27T05:30:14.196Z,5.09
2019-01-27T05:32:41.708Z,5.10
2019-01-27T05:35:09.890Z,5.13
2019-01-27T05:37:37.704Z,5.08
2019-01-27T05:40:07.230Z,5.10
2019-01-27T05:42:34.600Z,5.08
2019-01-27T05:45:03.146Z,5.03
2019-01-27T05:47:30.538Z,5.09
2019-01-27T05:49:58.608Z,5.05
2019-01-27T05:52:26.533Z,5.10
2019-01-27T05:54:54.093Z,5.12
2019-01-27T05:57:22.184Z,5.11
2019-01-27T05:59:49.643Z,5.09
2019-01-27T06:02:17.687Z,5.13
2019-01-27T06:04:45.105Z,5.13
2019-01-27T06:07:12.387Z,5.07
2019-01-27T06:09:39.526Z,5.14
2019-01-27T06:12:07.406Z,5.12
2019-01-27T06:14:35.043Z,5.10
2019-01-27T06:17:03.149Z,5.16
2019-01-27T06:19:30.586Z,5.11
2019-01-27T06:21:58.136Z,5.14
2019-01-27T06:24:25.384Z,5.15
2019-01-27T06:26:53.555Z,5.11
2019-01-27T06:29:21.616Z,5.13
2019-01-27T06:31:49.052Z,5.10
2019-01-27T06:34:18.686Z,5.10
2019-01-27T06:36:46.375Z,5.13
2019-01-27T06:39:13.831Z,5.20
2019-01-27T06:41:40.992Z,5.15
2019-01-27T06:44:08.593Z,5.19
2019-01-27T06:46:35.990Z,5.15
2019-01-27T06:49:04.221Z,5.19
2019-01-27T06:51:31.966Z,5.20
2019-01-27T06:53:59.717Z,5.22
2019-01-27T06:56:27.456Z,5.22
2019-01-27T06:59:03.153Z,5.20
2019-01-27T07:01:41.971Z,5.21
2019-01-27T07:04:17.006Z,5.15
2019-01-27T07:06:50.285Z,5.17
2019-01-27T07:09:32.206Z,5.20
2019-01-27T07:12:25.614Z,5.23
2019-01-27T07:15:21.722Z,5.22
2019-01-27T07:18:04.466Z,5.29
2019-01-27T07:21:10.029Z,5.23
2019-01-27T07:23:57.207Z,5.25
2019-01-27T07:26:39.499Z,5.26
2019-01-27T07:29:32.208Z,5.29
2019-01-27T07:32:17.906Z,5.28
2019-01-27T07:35:00.422Z,5.29
2019-01-27T07:37:35.395Z,5.34
2019-01-27T07:40:30.799Z,5.30
2019-01-27T07:43:04.681Z,5.38
2019-01-27T07:45:51.598Z,5.40
2019-01-27T07:48:38.614Z,5.42
2019-01-27T07:51:24.247Z,5.46
2019-01-27T07:54:03.766Z,5.51
2019-01-27T07:56:56.353Z,5.54
2019-01-27T08:00:01.326Z,5.55
2019-01-27T08:02:52.259Z,5.55
2019-01-27T08:05:35.499Z,5.60
2019-01-27T08:08:21.312Z,5.66
2019-01-27T08:11:07.287Z,5.63
2019-01-27T08:13:46.708Z,5.66
2019-01-27T08:16:33.023Z,5.68
2019-01-27T08:19:15.974Z,5.74
2019-01-27T08:22:18.362Z,5.74
2019-01-27T08:25:12.755Z,5.86
2019-01-27T08:28:00.893Z,5.87
2019-01-27T08:30:47.180Z,5.84
2019-01-27T08:33:28.221Z,5.92
2019-01-27T08:36:17.832Z,5.96
2019-01-27T08:39:01.166Z,6.07
2019-01-27T08:42:03.557Z,5.97
2019-01-27T08:44:55.121Z,6.12
2019-01-27T08:47:22.814Z,6.09
2019-01-27T08:49:50.411Z,6.15
2019-01-27T08:52:17.879Z,6.18
2019-01-27T08:54:45.670Z,6.25
2019-01-27T08:57:13.535Z,6.26
2019-01-27T08:59:41.611Z,6.27
2019-01-27T09:02:40.843Z,6.27
2019-01-27T09:05:20.167Z,6.37
2019-01-27T09:07:52.745Z,6.44
2019-01-27T09:10:58.163Z,6.38
2019-01-27T09:14:00.558Z,6.55
2019-01-27T09:16:51.661Z,6.54
2019-01-27T09:19:24.695Z,6.77
2019-01-27T09:22:14.643Z,6.94
2019-01-27T09:25:00.651Z,7.00
2019-01-27T09:27:33.540Z,7.16
2019-01-27T09:30:09.583Z,7.21
2019-01-27T09:33:02.663Z,7.20
2019-01-27T09:35:54.256Z,7.16
2019-01-27T09:38:40.250Z,7.12
2019-01-27T09:41:26.686Z,7.02
2019-01-27T09:44:14.190Z,6.92
2019-01-27T09:47:04.244Z,6.88
2019-01-27T09:49:53.839Z,6.85
2019-01-27T09:52:42.867Z,6.80
2019-01-27T09:55:19.941Z,6.71
2019-01-27T09:57:57.637Z,6.77
2019-01-27T10:00:34.720Z,6.73
2019-01-27T10:03:22.140Z,6.69
2019-01-27T10:06:02.227Z,6.70
2019-01-27T10:08:52.211Z,6.74
2019-01-27T10:11:33.547Z,6.76
2019-01-27T10:14:38.557Z,6.75
2019-01-27T10:17:28.376Z,6.90
2019-01-27T10:20:14.292Z,7.02
2019-01-27T10:22:49.418Z,7.03
2019-01-27T10:25:27.895Z,7.04
2019-01-27T10:28:05.672Z,7.11
2019-01-27T10:30:48.403Z,7.16
2019-01-27T10:33:51.312Z,7.17
2019-01-27T10:36:30.223Z,7.24
2019-01-27T10:39:08.335Z,7.32
2019-01-27T10:41:59.352Z,7.30
2019-01-27T10:44:49.261Z,7.25
2019-01-27T10:47:35.267Z,7.27
2019-01-27T10:50:39.318Z,7.25
2019-01-27T10:53:21.519Z,7.30
2019-01-27T10:55:57.937Z,7.33
2019-01-27T10:58:44.230Z,7.36
2019-01-27T11:01:40.113Z,7.48
2019-01-27T11:04:33.877Z,7.49
2019-01-27T11:07:24.070Z,7.30
2019-01-27T11:10:14.317Z,7.19
2019-01-27T11:13:02.281Z,7.07
2019-01-27T11:15:48.538Z,6.99
2019-01-27T11:18:29.937Z,6.93
2019-01-27T11:21:09.225Z,6.94
2019-01-27T11:23:56.277Z,6.90
2019-01-27T11:26:30.120Z,6.90
2019-01-27T11:29:36.063Z,6.80
2019-01-27T11:32:30.209Z,6.90
2019-01-27T11:35:12.742Z,6.95
2019-01-27T11:38:09.089Z,6.96
2019-01-27T11:40:45.333Z,6.97
2019-01-27T11:43:28.726Z,6.91
2019-01-27T11:46:22.668Z,6.98
2019-01-27T11:48:58.243Z,6.94
2019-01-27T11:51:54.170Z,6.97
2019-01-27T11:54:22.052Z,7.03
2019-01-27T11:56:49.488Z,7.03
2019-01-27T11:59:17.085Z,7.14
2019-01-27T12:01:44.727Z,7.11
2019-01-27T12:04:11.855Z,7.08
2019-01-27T12:06:39.510Z,7.13
2019-01-27T12:09:08.082Z,7.07
2019-01-27T12:11:35.734Z,7.20
2019-01-27T12:14:03.600Z,7.29
2019-01-27T12:16:31.334Z,7.27
2019-01-27T12:18:58.684Z,7.32
2019-01-27T12:21:27.446Z,7.31
2019-01-27T12:23:54.840Z,7.33
2019-01-27T12:26:22.466Z,7.31
2019-01-27T12:28:50.413Z,7.31
2019-01-27T12:31:17.923Z,7.20
2019-01-27T12:33:45.313Z,7.19
2019-01-27T12:36:13.039Z,7.24
2019-01-27T12:38:48.639Z,7.20
2019-01-27T12:41:16.591Z,7.09
2019-01-27T12:43:44.158Z,7.02
2019-01-27T12:46:11.595Z,7.00
2019-01-27T12:48:39.524Z,7.01
2019-01-27T12:51:06.878Z,6.88
2019-01-27T12:53:34.482Z,6.81
2019-01-27T12:56:02.358Z,6.76
2019-01-27T12:58:35.553Z,6.72
2019-01-27T13:01:08.785Z,6.68
2019-01-27T13:03:36.619Z,6.70
2019-01-27T13:06:04.405Z,6.66
2019-01-27T13:08:32.471Z,6.66
2019-01-27T13:11:05.726Z,6.70
2019-01-27T13:13:31.213Z,6.71
2019-01-27T13:15:59.009Z,6.69
2019-01-27T13:18:26.413Z,6.70
2019-01-27T13:20:54.035Z,6.65
2019-01-27T13:23:21.441Z,6.60
2019-01-27T13:25:49.038Z,6.60
2019-01-27T13:28:16.522Z,6.62
2019-01-27T13:30:44.134Z,6.58
2019-01-27T13:33:11.748Z,6.59
2019-01-27T13:35:39.802Z,6.59
2019-01-27T13:38:07.297Z,6.57
2019-01-27T13:40:34.556Z,6.55
2019-01-27T13:43:02.635Z,6.51
2019-01-27T13:45:30.126Z,6.61
2019-01-27T13:47:59.151Z,6.63
2019-01-27T13:50:27.220Z,6.62
2019-01-27T13:52:55.465Z,6.58
2019-01-27T13:55:26.167Z,6.62
2019-01-27T13:57:53.623Z,6.57
2019-01-27T14:00:27.515Z,6.61
2019-01-27T14:02:54.857Z,6.63
2019-01-27T14:05:22.510Z,6.69
2019-01-27T14:07:50.485Z,6.72
2019-01-27T14:10:21.672Z,6.67
2019-01-27T14:12:49.717Z,6.65
2019-01-27T14:15:20.849Z,6.66
2019-01-27T14:17:48.210Z,6.68
2019-01-27T14:20:17.116Z,6.65
2019-01-27T14:22:44.838Z,6.64
2019-01-27T14:25:15.105Z,6.65
2019-01-27T14:27:42.606Z,6.64
2019-01-27T14:30:22.910Z,6.60
2019-01-27T14:32:50.599Z,6.61
2019-01-27T14:35:18.085Z,6.54
2019-01-27T14:37:45.855Z,6.60
2019-01-27T14:40:18.878Z,6.53
2019-01-27T14:42:46.674Z,6.54
2019-01-27T14:45:17.914Z,6.53
2019-01-27T14:47:45.708Z,6.50
2019-01-27T14:50:19.818Z,6.47
2019-01-27T14:52:47.621Z,6.52
2019-01-27T14:55:16.546Z,6.50
2019-01-27T14:57:44.349Z,6.46
2019-01-27T15:00:22.322Z,6.43
2019-01-27T15:02:50.276Z,6.46
2019-01-27T15:05:18.029Z,6.46
2019-01-27T15:07:45.830Z,6.46
2019-01-27T15:10:15.953Z,6.41
2019-01-27T15:12:43.357Z,6.46
2019-01-27T15:15:14.730Z,6.36
2019-01-27T15:17:42.121Z,6.39
2019-01-27T15:20:17.957Z,6.39
2019-01-27T15:22:45.647Z,6.37
2019-01-27T15:25:13.592Z,6.34
2019-01-27T15:27:41.412Z,6.38
2019-01-27T15:30:15.027Z,6.36
2019-01-27T15:32:42.351Z,6.33
2019-01-27T15:35:10.279Z,6.34
2019-01-27T15:37:37.860Z,6.34
2019-01-27T15:40:06.826Z,6.35
2019-01-27T15:42:37.843Z,6.30
2019-01-27T15:45:07.754Z,6.33
2019-01-27T15:47:35.499Z,6.37
2019-01-27T15:50:05.538Z,6.32
2019-01-27T15:52:33.127Z,6.32
2019-01-27T15:55:00.263Z,6.31
2019-01-27T15:57:27.856Z,6.27
2019-01-27T15:59:55.414Z,6.20
2019-01-27T16:02:23.057Z,6.22
2019-01-27T16:04:50.687Z,6.25
2019-01-27T16:07:18.425Z,6.20
2019-01-27T16:09:46.044Z,6.22
2019-01-27T16:12:13.523Z,6.24
2019-01-27T16:14:41.754Z,6.17
2019-01-27T16:17:09.505Z,6.17
2019-01-27T16:19:37.499Z,6.23
2019-01-27T16:22:05.193Z,6.16
2019-01-27T16:24:37.641Z,6.19
2019-01-27T16:27:05.677Z,6.23
2019-01-27T16:29:54.943Z,6.19
2019-01-27T16:32:32.422Z,6.11
2019-01-27T16:35:03.134Z,6.18
2019-01-27T16:37:30.385Z,6.16
2019-01-27T16:39:57.932Z,6.19
2019-01-27T16:42:25.639Z,6.12
2019-01-27T16:44:53.616Z,6.18
2019-01-27T16:47:23.255Z,6.18
2019-01-27T16:49:50.824Z,6.15
2019-01-27T16:52:18.258Z,6.10
2019-01-27T16:54:45.949Z,6.15
2019-01-27T16:57:14.093Z,6.17
2019-01-27T16:59:41.731Z,6.14
2019-01-27T17:02:09.587Z,6.15
2019-01-27T17:04:37.105Z,6.11
2019-01-27T17:07:05.348Z,6.14
2019-01-27T17:09:33.126Z,6.12
2019-01-27T17:12:00.888Z,6.13
2019-01-27T17:14:28.435Z,6.08
2019-01-27T17:17:00.321Z,6.13
2019-01-27T17:19:27.718Z,6.11
2019-01-27T17:21:55.643Z,6.15
2019-01-27T17:32:11.496Z,6.08
2019-01-27T17:34:39.002Z,6.10
2019-01-27T17:37:06.659Z,6.08
2019-01-27T17:39:34.170Z,6.05
2019-01-27T17:42:01.965Z,6.08
2019-01-27T17:44:29.216Z,6.00
2019-01-27T17:47:17.723Z,6.08
2019-01-27T17:49:45.295Z,6.03
2019-01-27T17:52:14.083Z,6.04
2019-01-27T17:54:41.845Z,6.11
2019-01-27T17:57:32.139Z,6.11
2019-01-27T18:00:21.143Z,6.07
2019-01-27T18:02:55.036Z,5.99
2019-01-27T18:05:34.110Z,6.05
2019-01-27T18:08:19.570Z,6.04
2019-01-27T18:11:02.543Z,6.05
2019-01-27T18:13:46.921Z,5.93
2019-01-27T18:16:15.450Z,5.96
2019-01-27T18:18:43.524Z,5.96
2019-01-27T18:21:11.521Z,5.98
2019-01-27T18:23:40.975Z,6.02
2019-01-27T18:26:09.087Z,6.03
2019-01-27T18:28:37.211Z,6.01
2019-01-27T18:31:05.195Z,5.92
2019-01-27T18:33:33.332Z,5.96
2019-01-27T18:36:01.229Z,5.84
2019-01-27T18:38:29.387Z,5.82
2019-01-27T18:40:58.430Z,5.87
2019-01-27T18:43:26.558Z,5.79
2019-01-27T18:45:54.899Z,5.66
2019-01-27T18:48:22.739Z,5.80
2019-01-27T18:50:50.639Z,5.83
2019-01-27T18:53:40.781Z,5.79
2019-01-27T18:56:18.727Z,5.74
2019-01-27T18:58:58.960Z,5.75
2019-01-27T19:01:47.887Z,5.82
2019-01-27T19:04:30.380Z,5.88
2019-01-27T19:07:18.055Z,5.82
2019-01-27T19:10:18.423Z,5.79
2019-01-27T19:13:07.799Z,5.82
2019-01-27T19:15:55.233Z,5.74
2019-01-27T19:18:41.675Z,5.71
2019-01-27T19:21:29.512Z,5.70
2019-01-27T19:24:25.798Z,5.71
2019-01-27T19:27:13.465Z,5.66
2019-01-27T19:30:02.580Z,5.62
2019-01-27T19:32:42.037Z,5.53
2019-01-27T19:35:21.178Z,5.50
2019-01-27T19:38:08.804Z,5.50
2019-01-27T19:40:42.624Z,5.45
2019-01-27T19:43:32.332Z,5.38
2019-01-27T19:46:12.647Z,5.32
2019-01-27T19:49:04.029Z,5.32
2019-01-27T19:51:48.898Z,5.33
2019-01-27T19:54:35.443Z,5.23
2019-01-27T19:57:23.138Z,5.20
2019-01-27T20:00:16.505Z,5.24
2019-01-27T20:02:59.144Z,5.11
2019-01-27T20:05:44.812Z,5.07
2019-01-27T20:08:25.490Z,5.07
2019-01-27T20:11:21.921Z,5.00
2019-01-27T20:14:15.147Z,5.03
2019-01-27T20:16:56.778Z,4.93
2019-01-27T20:19:59.546Z,4.96
2019-01-27T20:22:36.289Z,4.96
2019-01-27T20:25:23.171Z,4.95
2019-01-27T20:28:02.012Z,4.86
2019-01-27T20:30:48.866Z,4.89
2019-01-27T20:33:34.866Z,4.83
2019-01-27T20:36:13.305Z,4.71
2019-01-27T20:38:59.996Z,4.78
2019-01-27T20:41:52.979Z,4.73
2019-01-27T20:44:29.955Z,4.79
2019-01-27T20:47:20.781Z,4.74
2019-01-27T20:49:58.247Z,4.67
2019-01-27T20:52:34.259Z,4.69
2019-01-27T20:55:21.085Z,4.66
2019-01-27T20:58:10.986Z,4.61
2019-01-27T21:01:00.900Z,4.63
2019-01-27T21:03:37.920Z,4.51
2019-01-27T21:06:34.491Z,4.47
2019-01-27T21:09:10.310Z,4.51
2019-01-27T21:11:57.984Z,4.46
2019-01-27T21:14:32.748Z,4.43
2019-01-27T21:17:28.735Z,4.31
2019-01-27T21:20:01.243Z,4.32
2019-01-27T21:22:29.692Z,4.25
2019-01-27T21:24:57.675Z,4.25
2019-01-27T21:27:27.489Z,4.26
2019-01-27T21:29:55.158Z,4.11
2019-01-27T21:32:23.527Z,4.13
2019-01-27T21:34:51.796Z,4.15
2019-01-27T21:37:19.481Z,3.95
2019-01-27T21:39:49.008Z,4.06
2019-01-27T21:42:16.694Z,3.96
2019-01-27T21:44:44.724Z,3.80
2019-01-27T21:47:13.415Z,3.68
2019-01-27T21:49:41.097Z,3.64
2019-01-27T21:52:09.190Z,3.61
2019-01-27T21:54:37.249Z,3.51
2019-01-27T21:57:05.314Z,3.50
2019-01-27T21:59:33.633Z,3.48
2019-01-27T22:02:01.607Z,3.47
2019-01-27T22:04:29.956Z,3.55
2019-01-27T22:06:57.696Z,3.43
2019-01-27T22:09:25.383Z,3.43
2019-01-27T22:11:52.971Z,3.42
2019-01-27T22:14:20.966Z,3.39
2019-01-27T22:16:49.425Z,3.26
2019-01-27T22:19:17.291Z,3.18
2019-01-27T22:21:45.494Z,3.21
2019-01-27T22:24:13.429Z,3.18
2019-01-27T22:26:41.424Z,3.07
2019-01-27T22:29:09.657Z,3.06
2019-01-27T22:31:37.442Z,3.07
2019-01-27T22:34:06.199Z,3.07
2019-01-27T22:36:35.009Z,2.97
2019-01-27T22:39:07.351Z,2.95
2019-01-27T22:41:35.176Z,2.89
2019-01-27T22:44:04.224Z,2.90
2019-01-27T22:46:32.087Z,2.96
2019-01-27T22:49:00.461Z,2.89
2019-01-27T22:51:28.833Z,2.91
2019-01-27T22:53:56.841Z,2.84
2019-01-27T22:56:26.403Z,2.79
2019-01-27T22:58:54.222Z,2.72
2019-01-27T23:01:22.375Z,2.70
2019-01-27T23:03:54.868Z,2.66
2019-01-27T23:06:22.998Z,2.62
2019-01-27T23:08:51.724Z,2.65
2019-01-27T23:11:20.421Z,2.60
2019-01-27T23:13:48.618Z,2.54
2019-01-27T23:16:16.662Z,2.51
2019-01-27T23:18:44.979Z,2.54
2019-01-27T23:21:13.038Z,2.52
2019-01-27T23:23:40.688Z,2.49
2019-01-27T23:26:08.411Z,2.53
2019-01-27T23:28:36.315Z,2.61
2019-01-27T23:31:05.243Z,2.65
2019-01-27T23:33:33.525Z,2.59
2019-01-27T23:36:03.343Z,2.67
2019-01-27T23:38:33.056Z,2.61
2019-01-27T23:41:01.443Z,2.55
2019-01-27T23:43:29.810Z,2.58
2019-01-27T23:46:15.630Z,2.67
2019-01-27T23:48:42.869Z,2.68
2019-01-27T23:51:10.026Z,2.66
2019-01-27T23:53:38.197Z,2.65
2019-01-27T23:56:05.711Z,2.65
2019-01-27T23:58:32.989Z,2.60
